createdAt,value
2022-09-06T00:01:45.354Z,21.70
2022-09-06T00:04:15.422Z,21.80
2022-09-06T00:06:42.605Z,21.80
2022-09-06T00:09:09.873Z,21.70
2022-09-06T00:11:36.917Z,21.70
2022-09-06T00:14:03.860Z,21.60
2022-09-06T00:16:31.102Z,21.60
2022-09-06T00:18:58.168Z,21.60
2022-09-06T00:21:27.467Z,21.50
2022-09-06T00:23:54.721Z,21.40
2022-09-06T00:26:22.423Z,21.50
2022-09-06T00:28:49.426Z,21.50
2022-09-06T00:31:22.003Z,21.50
2022-09-06T00:33:49.412Z,21.50
2022-09-06T00:36:17.079Z,21.40
2022-09-06T00:38:44.406Z,21.30
2022-09-06T00:41:13.425Z,21.30
2022-09-06T00:43:40.492Z,21.10
2022-09-06T00:46:08.862Z,21.30
2022-09-06T00:48:36.276Z,21.30
2022-09-06T00:51:05.573Z,21.30
2022-09-06T00:53:33.097Z,21.30
2022-09-06T00:56:00.709Z,21.10
2022-09-06T00:58:28.033Z,21.20
2022-09-06T01:00:55.430Z,21.30
2022-09-06T01:03:23.561Z,21.30
2022-09-06T01:05:59.981Z,21.10
2022-09-06T01:08:36.086Z,21.00
2022-09-06T01:11:09.089Z,21.00
2022-09-06T01:14:26.424Z,21.00
2022-09-06T01:17:22.427Z,21.10
2022-09-06T01:20:00.890Z,21.20
2022-09-06T01:23:09.860Z,21.30
2022-09-06T01:26:00.335Z,21.20
2022-09-06T01:28:41.465Z,20.80
2022-09-06T01:31:30.638Z,20.80
2022-09-06T01:34:03.796Z,20.90
2022-09-06T01:36:54.355Z,20.90
2022-09-06T01:39:33.741Z,20.90
2022-09-06T01:42:08.976Z,20.90
2022-09-06T01:44:35.886Z,20.90
2022-09-06T01:47:07.680Z,20.90
2022-09-06T01:50:06.904Z,20.90
2022-09-06T01:52:35.703Z,20.90
2022-09-06T01:55:08.983Z,20.90
2022-09-06T01:57:51.778Z,20.90
2022-09-06T02:00:19.764Z,20.80
2022-09-06T02:03:14.849Z,20.80
2022-09-06T02:05:43.676Z,20.80
2022-09-06T02:08:24.223Z,20.60
2022-09-06T02:11:09.992Z,20.60
2022-09-06T02:13:47.380Z,20.60
2022-09-06T02:16:16.305Z,20.60
2022-09-06T02:18:44.777Z,20.60
2022-09-06T02:21:12.952Z,20.70
2022-09-06T02:23:40.574Z,20.70
2022-09-06T02:26:17.987Z,20.70
2022-09-06T02:28:44.969Z,20.70
2022-09-06T02:31:16.182Z,20.60
2022-09-06T02:33:44.207Z,20.60
2022-09-06T02:36:11.227Z,20.60
2022-09-06T02:38:38.985Z,20.60
2022-09-06T02:41:06.044Z,20.50
2022-09-06T02:43:36.045Z,20.40
2022-09-06T02:46:03.690Z,19.90
2022-09-06T02:48:30.846Z,19.80
2022-09-06T02:50:57.807Z,19.90
2022-09-06T02:53:34.159Z,19.90
2022-09-06T02:56:01.229Z,20.00
2022-09-06T02:58:28.883Z,20.10
2022-09-06T03:00:56.005Z,20.20
2022-09-06T03:03:23.212Z,20.20
2022-09-06T03:05:51.627Z,20.30
2022-09-06T03:08:19.236Z,20.30
2022-09-06T03:10:54.135Z,20.30
2022-09-06T03:13:21.194Z,20.40
2022-09-06T03:15:56.285Z,20.40
2022-09-06T03:18:27.707Z,20.40
2022-09-06T03:20:55.262Z,20.40
2022-09-06T03:23:24.665Z,20.40
2022-09-06T03:25:51.805Z,20.40
2022-09-06T03:28:20.419Z,20.40
2022-09-06T03:30:49.971Z,20.40
2022-09-06T03:33:17.614Z,20.40
2022-09-06T03:36:00.887Z,20.30
2022-09-06T03:38:31.453Z,20.30
2022-09-06T03:41:00.895Z,20.30
2022-09-06T03:43:31.420Z,20.30
2022-09-06T03:45:59.083Z,20.30
2022-09-06T03:48:31.090Z,20.30
2022-09-06T03:50:59.062Z,20.20
2022-09-06T03:53:26.643Z,20.30
2022-09-06T03:55:55.555Z,20.20
2022-09-06T03:58:23.532Z,20.20
2022-09-06T04:00:59.835Z,20.10
2022-09-06T04:03:27.022Z,20.10
2022-09-06T04:05:54.077Z,20.20
2022-09-06T04:08:21.120Z,20.10
2022-09-06T04:10:51.360Z,20.20
2022-09-06T04:13:18.288Z,20.20
2022-09-06T04:15:48.653Z,20.20
2022-09-06T04:18:16.058Z,20.20
2022-09-06T04:20:43.037Z,20.20
2022-09-06T04:23:10.112Z,20.20
2022-09-06T04:25:37.202Z,20.20
2022-09-06T04:28:04.142Z,20.20
2022-09-06T04:30:31.277Z,20.20
2022-09-06T04:32:58.456Z,20.10
2022-09-06T04:35:25.470Z,20.20
2022-09-06T04:37:52.487Z,20.10
2022-09-06T04:40:20.017Z,20.10
2022-09-06T04:42:46.947Z,20.10
2022-09-06T04:45:13.875Z,20.10
2022-09-06T04:47:40.916Z,20.10
2022-09-06T04:50:08.269Z,20.10
2022-09-06T04:52:35.421Z,20.00
2022-09-06T04:55:03.321Z,20.00
2022-09-06T04:57:30.528Z,20.00
2022-09-06T04:59:57.640Z,20.10
2022-09-06T05:02:24.614Z,20.00
2022-09-06T05:04:53.483Z,20.00
2022-09-06T05:07:20.494Z,19.90
2022-09-06T05:09:47.521Z,20.00
2022-09-06T05:12:14.493Z,19.90
2022-09-06T05:14:41.624Z,19.80
2022-09-06T05:17:08.650Z,19.90
2022-09-06T05:19:35.597Z,19.90
2022-09-06T05:22:03.156Z,19.90
2022-09-06T05:24:36.354Z,19.90
2022-09-06T05:27:07.686Z,19.90
2022-09-06T05:29:34.713Z,20.00
2022-09-06T05:32:02.156Z,20.00
2022-09-06T05:34:29.441Z,20.10
2022-09-06T05:36:56.411Z,20.10
2022-09-06T05:39:24.044Z,20.10
2022-09-06T05:41:51.267Z,20.00
2022-09-06T05:44:18.305Z,20.00
2022-09-06T05:46:45.550Z,20.00
2022-09-06T05:49:13.124Z,20.00
2022-09-06T05:51:40.543Z,20.10
2022-09-06T05:54:08.026Z,20.00
2022-09-06T05:56:35.179Z,19.70
2022-09-06T05:59:02.215Z,19.60
2022-09-06T06:01:30.858Z,19.70
2022-09-06T06:04:00.606Z,19.80
2022-09-06T06:06:29.284Z,19.90
2022-09-06T06:08:56.652Z,20.00
2022-09-06T06:11:24.489Z,20.00
2022-09-06T06:13:51.850Z,19.90
2022-09-06T06:16:20.433Z,19.90
2022-09-06T06:18:51.700Z,20.00
2022-09-06T06:21:23.974Z,20.00
2022-09-06T06:23:55.789Z,20.00
2022-09-06T06:26:23.002Z,20.10
2022-09-06T06:28:50.162Z,20.10
2022-09-06T06:31:17.497Z,20.10
2022-09-06T06:33:44.840Z,20.10
2022-09-06T06:36:14.693Z,20.10
2022-09-06T06:38:42.837Z,20.10
2022-09-06T06:41:11.494Z,19.80
2022-09-06T06:43:38.724Z,19.90
2022-09-06T06:46:10.213Z,19.90
2022-09-06T06:48:38.103Z,19.90
2022-09-06T06:51:05.195Z,20.10
2022-09-06T06:53:33.462Z,20.10
2022-09-06T06:56:00.767Z,20.00
2022-09-06T06:58:30.605Z,20.00
2022-09-06T07:00:58.046Z,19.80
2022-09-06T07:03:25.215Z,20.00
2022-09-06T07:08:39.719Z,20.20
2022-09-06T07:11:07.352Z,20.30
2022-09-06T07:13:34.449Z,20.50
2022-09-06T07:16:15.465Z,20.40
2022-09-06T07:18:43.243Z,20.50
2022-09-06T07:26:32.620Z,21.20
2022-09-06T07:29:01.144Z,21.20
2022-09-06T07:34:17.841Z,21.60
2022-09-06T07:36:44.994Z,21.40
2022-09-06T07:39:11.969Z,22.00
2022-09-06T07:41:38.959Z,22.20
2022-09-06T07:44:06.074Z,22.40
2022-09-06T07:46:33.444Z,21.90
2022-09-06T07:49:00.474Z,22.00
2022-09-06T07:51:27.443Z,22.50
2022-09-06T07:54:07.375Z,22.70
2022-09-06T07:56:40.225Z,22.80
2022-09-06T07:59:07.169Z,22.60
2022-09-06T08:01:38.421Z,22.60
2022-09-06T08:04:13.413Z,22.60
2022-09-06T08:09:29.184Z,22.90
2022-09-06T08:11:56.324Z,23.30
2022-09-06T08:14:23.279Z,22.90
2022-09-06T08:16:50.681Z,23.30
2022-09-06T08:19:18.573Z,23.00
2022-09-06T08:21:45.589Z,23.20
2022-09-06T08:24:12.730Z,23.60
2022-09-06T08:26:40.806Z,23.80
2022-09-06T08:29:08.870Z,23.80
2022-09-06T08:31:38.759Z,23.80
2022-09-06T08:34:05.935Z,23.60
2022-09-06T08:36:33.878Z,24.00
2022-09-06T08:39:05.791Z,24.00
2022-09-06T08:41:56.739Z,23.30
2022-09-06T08:47:20.831Z,23.90
2022-09-06T08:49:55.855Z,23.70
2022-09-06T08:52:26.408Z,23.80
2022-09-06T08:55:12.490Z,23.70
2022-09-06T08:58:05.243Z,23.80
2022-09-06T09:00:33.059Z,23.80
2022-09-06T09:03:08.029Z,23.60
2022-09-06T09:05:36.076Z,24.00
2022-09-06T09:08:26.114Z,24.00
2022-09-06T09:11:03.249Z,24.10
2022-09-06T09:13:39.056Z,24.40
2022-09-06T09:16:06.443Z,24.00
2022-09-06T09:18:38.596Z,24.20
2022-09-06T09:21:05.545Z,24.40
2022-09-06T09:23:33.241Z,25.00
2022-09-06T09:26:04.994Z,25.40
2022-09-06T09:28:32.146Z,25.40
2022-09-06T09:30:59.820Z,25.40
2022-09-06T09:33:35.701Z,25.30
2022-09-06T09:36:09.266Z,25.60
2022-09-06T09:38:44.448Z,25.40
2022-09-06T09:41:24.501Z,25.30
2022-09-06T09:44:17.379Z,24.80
2022-09-06T09:46:44.896Z,24.90
2022-09-06T09:49:32.822Z,24.90
2022-09-06T09:52:13.808Z,25.10
2022-09-06T09:54:42.515Z,25.10
2022-09-06T09:57:12.044Z,25.10
2022-09-06T09:59:47.629Z,25.20
2022-09-06T10:02:32.253Z,25.20
2022-09-06T10:05:18.053Z,24.90
2022-09-06T10:07:51.933Z,25.00
2022-09-06T10:10:23.993Z,25.00
2022-09-06T10:13:08.013Z,25.10
2022-09-06T10:15:37.826Z,25.30
2022-09-06T10:18:04.833Z,25.30
2022-09-06T10:20:42.716Z,25.30
2022-09-06T10:26:42.970Z,25.70
2022-09-06T10:29:10.106Z,25.80
2022-09-06T10:31:45.848Z,25.90
2022-09-06T10:34:45.286Z,26.00
2022-09-06T10:37:25.463Z,26.00
2022-09-06T10:40:04.383Z,26.10
2022-09-06T10:42:46.737Z,26.10
2022-09-06T10:45:26.074Z,26.10
2022-09-06T10:48:05.404Z,25.90
2022-09-06T10:50:46.073Z,25.90
2022-09-06T10:53:22.068Z,26.00
2022-09-06T10:55:50.989Z,25.90
2022-09-06T10:58:23.486Z,26.00
2022-09-06T11:00:50.831Z,26.10
2022-09-06T11:06:20.677Z,26.40
2022-09-06T11:09:18.738Z,26.40
2022-09-06T11:12:01.495Z,26.50
2022-09-06T11:14:29.161Z,26.40
2022-09-06T11:17:05.036Z,26.60
2022-09-06T11:19:44.385Z,26.60
2022-09-06T11:22:45.707Z,26.10
2022-09-06T11:25:21.738Z,26.40
2022-09-06T11:27:55.025Z,26.50
2022-09-06T11:30:25.780Z,26.70
2022-09-06T11:33:21.987Z,26.50
2022-09-06T11:35:50.058Z,26.40
2022-09-06T11:38:16.969Z,26.40
2022-09-06T11:40:46.526Z,26.70
2022-09-06T11:43:38.131Z,26.80
2022-09-06T11:46:05.140Z,26.60
2022-09-06T11:48:44.264Z,27.00
2022-09-06T11:51:12.437Z,26.90
2022-09-06T11:53:48.528Z,27.10
2022-09-06T11:56:31.442Z,26.90
2022-09-06T11:59:04.634Z,26.60
2022-09-06T12:01:31.473Z,26.70
2022-09-06T12:04:03.736Z,27.00
2022-09-06T12:07:07.869Z,26.80
2022-09-06T12:09:38.273Z,26.80
2022-09-06T12:12:05.707Z,27.00
2022-09-06T12:14:34.489Z,26.80
2022-09-06T12:17:01.779Z,26.60
2022-09-06T12:19:52.320Z,26.50
2022-09-06T12:22:33.261Z,26.50
2022-09-06T12:25:01.241Z,26.90
2022-09-06T12:27:39.568Z,27.30
2022-09-06T12:30:09.586Z,27.30
2022-09-06T12:32:47.488Z,27.40
2022-09-06T12:38:17.290Z,27.30
2022-09-06T12:40:52.619Z,27.20
2022-09-06T12:43:19.818Z,26.80
2022-09-06T12:45:50.874Z,27.20
2022-09-06T12:48:33.563Z,27.40
2022-09-06T12:51:06.050Z,27.40
2022-09-06T12:53:35.080Z,27.50
2022-09-06T12:56:08.637Z,27.30
2022-09-06T12:58:37.090Z,27.40
2022-09-06T13:01:17.340Z,27.50
2022-09-06T13:04:05.308Z,27.70
2022-09-06T13:06:34.538Z,27.70
2022-09-06T13:09:02.189Z,27.90
2022-09-06T13:11:38.759Z,27.90
2022-09-06T13:14:32.252Z,27.60
2022-09-06T13:17:00.369Z,27.50
2022-09-06T13:19:33.477Z,27.50
2022-09-06T13:22:03.925Z,27.40
2022-09-06T13:24:47.754Z,27.50
2022-09-06T13:27:33.959Z,27.50
2022-09-06T13:30:09.607Z,27.50
2022-09-06T13:32:45.976Z,27.60
2022-09-06T13:35:28.957Z,27.30
2022-09-06T13:38:35.044Z,27.50
2022-09-06T13:41:12.758Z,27.80
2022-09-06T13:43:45.353Z,27.80
2022-09-06T13:46:12.606Z,27.60
2022-09-06T13:48:39.998Z,27.20
2022-09-06T13:51:10.466Z,27.10
2022-09-06T13:53:37.640Z,27.40
2022-09-06T13:56:08.988Z,27.40
2022-09-06T13:58:36.778Z,27.30
2022-09-06T14:01:08.775Z,27.70
2022-09-06T14:03:38.337Z,27.50
2022-09-06T14:06:05.538Z,27.70
2022-09-06T14:08:49.580Z,27.60
2022-09-06T14:11:31.103Z,27.80
2022-09-06T14:13:58.255Z,27.90
2022-09-06T14:16:25.452Z,27.80
2022-09-06T14:18:52.706Z,27.90
2022-09-06T14:21:19.794Z,27.60
2022-09-06T14:23:52.895Z,27.70
2022-09-06T14:26:21.705Z,28.00
2022-09-06T14:28:50.015Z,27.90
2022-09-06T14:31:20.762Z,27.80
2022-09-06T14:33:49.051Z,27.80
2022-09-06T14:36:19.017Z,27.60
2022-09-06T14:38:46.872Z,27.50
2022-09-06T14:41:15.677Z,27.40
2022-09-06T14:43:43.777Z,27.50
2022-09-06T14:46:14.364Z,27.60
2022-09-06T14:48:42.754Z,27.60
2022-09-06T14:51:11.517Z,27.70
2022-09-06T14:53:42.727Z,27.80
2022-09-06T14:56:10.650Z,27.80
2022-09-06T14:58:38.601Z,27.90
2022-09-06T15:01:09.485Z,28.00
2022-09-06T15:03:36.964Z,27.80
2022-09-06T15:06:04.213Z,27.70
2022-09-06T15:08:31.268Z,27.70
2022-09-06T15:10:58.868Z,27.60
2022-09-06T15:13:27.070Z,27.60
2022-09-06T15:15:57.493Z,27.80
2022-09-06T15:18:24.881Z,27.80
2022-09-06T15:20:51.942Z,27.80
2022-09-06T15:23:25.286Z,27.80
2022-09-06T15:25:54.224Z,27.80
2022-09-06T15:28:21.206Z,27.80
2022-09-06T15:30:49.201Z,27.70
2022-09-06T15:33:16.359Z,27.10
2022-09-06T15:35:43.501Z,27.30
2022-09-06T15:38:11.952Z,27.40
2022-09-06T15:40:39.306Z,27.50
2022-09-06T15:43:06.583Z,27.50
2022-09-06T15:45:35.908Z,27.60
2022-09-06T15:48:03.662Z,27.60
2022-09-06T15:50:50.349Z,27.30
2022-09-06T15:53:18.773Z,27.30
2022-09-06T15:55:58.565Z,27.10
2022-09-06T15:58:26.822Z,27.20
2022-09-06T16:01:11.367Z,27.00
2022-09-06T16:03:46.703Z,26.90
2022-09-06T16:06:27.238Z,26.80
2022-09-06T16:09:03.802Z,26.60
2022-09-06T16:11:35.468Z,26.40
2022-09-06T16:14:07.318Z,26.50
2022-09-06T16:16:37.201Z,26.40
2022-09-06T16:19:04.225Z,26.20
2022-09-06T16:21:32.495Z,26.10
2022-09-06T16:24:01.551Z,26.10
2022-09-06T16:26:35.118Z,26.10
2022-09-06T16:29:02.421Z,26.00
2022-09-06T16:31:39.089Z,26.10
2022-09-06T16:34:08.033Z,26.10
2022-09-06T16:36:34.983Z,26.10
2022-09-06T16:39:02.277Z,26.00
2022-09-06T16:41:40.853Z,26.00
2022-09-06T16:44:16.815Z,26.00
2022-09-06T16:46:45.742Z,26.00
2022-09-06T16:49:12.899Z,25.90
2022-09-06T16:51:39.868Z,25.80
2022-09-06T16:54:07.161Z,25.80
2022-09-06T16:56:36.029Z,25.80
2022-09-06T16:59:08.008Z,25.80
2022-09-06T17:01:36.370Z,25.80
2022-09-06T17:04:04.060Z,25.80
2022-09-06T17:06:31.706Z,25.80
2022-09-06T17:08:59.407Z,25.70
2022-09-06T17:11:27.387Z,25.70
2022-09-06T17:13:54.802Z,25.50
2022-09-06T17:16:40.409Z,25.60
2022-09-06T17:19:09.228Z,25.50
2022-09-06T17:21:37.218Z,25.40
2022-09-06T17:24:05.366Z,25.40
2022-09-06T17:26:34.765Z,25.40
2022-09-06T17:29:02.292Z,25.40
2022-09-06T17:31:30.259Z,25.30
2022-09-06T17:33:58.640Z,25.30
2022-09-06T17:36:27.862Z,25.30
2022-09-06T17:39:00.942Z,25.30
2022-09-06T17:41:31.079Z,25.30
2022-09-06T17:44:02.155Z,25.20
2022-09-06T17:46:29.681Z,25.10
2022-09-06T17:48:56.925Z,25.00
2022-09-06T17:51:24.698Z,24.90
2022-09-06T17:53:52.461Z,24.80
2022-09-06T17:56:19.930Z,24.70
2022-09-06T17:58:55.477Z,24.80
2022-09-06T18:01:23.423Z,24.80
2022-09-06T18:03:50.571Z,24.80
2022-09-06T18:06:22.990Z,24.90
2022-09-06T18:08:51.970Z,24.90
2022-09-06T18:11:27.282Z,25.00
2022-09-06T18:13:56.167Z,25.00
2022-09-06T18:16:23.181Z,24.90
2022-09-06T18:18:52.598Z,24.80
2022-09-06T18:21:19.915Z,24.70
2022-09-06T18:23:46.967Z,24.70
2022-09-06T18:26:14.486Z,24.70
2022-09-06T18:28:41.448Z,24.60
2022-09-06T18:31:16.450Z,24.50
2022-09-06T18:33:43.623Z,24.50
2022-09-06T18:36:11.732Z,24.40
2022-09-06T18:38:40.230Z,24.50
2022-09-06T18:41:08.406Z,24.60
2022-09-06T18:43:36.990Z,24.60
2022-09-06T18:46:08.693Z,24.50
2022-09-06T18:48:36.643Z,24.40
2022-09-06T18:51:14.004Z,24.40
2022-09-06T18:53:44.793Z,24.50
2022-09-06T18:56:13.258Z,24.40
2022-09-06T18:58:40.761Z,24.40
2022-09-06T19:01:09.581Z,24.30
2022-09-06T19:03:37.175Z,24.40
2022-09-06T19:06:04.798Z,24.30
2022-09-06T19:08:34.970Z,24.20
2022-09-06T19:11:07.767Z,24.20
2022-09-06T19:13:36.528Z,24.20
2022-09-06T19:16:04.872Z,24.00
2022-09-06T19:18:32.672Z,24.00
2022-09-06T19:21:05.307Z,24.00
2022-09-06T19:23:33.894Z,24.10
2022-09-06T19:26:13.612Z,24.20
2022-09-06T19:28:40.998Z,24.20
2022-09-06T19:31:16.023Z,24.20
2022-09-06T19:33:43.874Z,24.00
2022-09-06T19:36:12.385Z,24.00
2022-09-06T19:39:02.087Z,24.00
2022-09-06T19:41:27.818Z,24.00
2022-09-06T19:43:55.676Z,23.80
2022-09-06T19:46:23.296Z,23.70
2022-09-06T19:48:51.950Z,23.70
2022-09-06T19:51:19.142Z,23.70
2022-09-06T19:53:53.186Z,23.60
2022-09-06T19:56:22.579Z,23.60
2022-09-06T19:58:57.393Z,23.60
2022-09-06T20:01:26.545Z,23.70
2022-09-06T20:03:53.591Z,23.50
2022-09-06T20:06:22.584Z,23.50
2022-09-06T20:08:51.204Z,23.40
2022-09-06T20:11:18.714Z,23.50
2022-09-06T20:13:45.899Z,23.50
2022-09-06T20:16:13.186Z,23.40
2022-09-06T20:18:40.461Z,23.40
2022-09-06T20:21:08.010Z,23.40
2022-09-06T20:23:35.465Z,23.30
2022-09-06T20:26:03.857Z,23.30
2022-09-06T20:28:31.249Z,23.40
2022-09-06T20:31:03.617Z,23.30
2022-09-06T20:33:31.322Z,23.30
2022-09-06T20:36:03.529Z,23.20
2022-09-06T20:38:35.200Z,23.00
2022-09-06T20:41:22.963Z,22.90
2022-09-06T20:43:54.719Z,23.00
2022-09-06T20:46:25.148Z,22.80
2022-09-06T20:48:52.401Z,22.80
2022-09-06T20:51:21.189Z,22.80
2022-09-06T20:53:53.048Z,22.80
2022-09-06T20:56:22.265Z,22.80
2022-09-06T20:58:50.566Z,22.80
2022-09-06T21:01:22.638Z,22.70
2022-09-06T21:03:54.663Z,22.70
2022-09-06T21:06:21.993Z,22.70
2022-09-06T21:08:49.519Z,22.60
2022-09-06T21:11:16.806Z,22.50
2022-09-06T21:13:43.965Z,22.50
2022-09-06T21:16:11.159Z,22.50
2022-09-06T21:18:38.172Z,22.50
2022-09-06T21:21:06.769Z,22.40
2022-09-06T21:23:38.010Z,22.30
2022-09-06T21:26:06.888Z,21.80
2022-09-06T21:28:35.456Z,22.10
2022-09-06T21:31:06.145Z,21.70
2022-09-06T21:33:33.952Z,21.80
2022-09-06T21:36:07.078Z,21.90
2022-09-06T21:38:35.128Z,22.00
2022-09-06T21:41:03.760Z,22.10
2022-09-06T21:43:30.961Z,22.20
2022-09-06T21:46:01.315Z,22.10
2022-09-06T21:48:28.607Z,21.70
2022-09-06T21:50:55.657Z,21.90
2022-09-06T21:53:23.776Z,22.00
2022-09-06T21:55:50.720Z,22.20
2022-09-06T21:58:17.973Z,22.10
2022-09-06T22:00:51.982Z,22.00
2022-09-06T22:03:19.051Z,21.80
2022-09-06T22:05:46.270Z,21.50
2022-09-06T22:08:13.398Z,21.50
2022-09-06T22:10:40.505Z,21.70
2022-09-06T22:13:07.441Z,21.70
2022-09-06T22:15:38.121Z,21.50
2022-09-06T22:18:06.182Z,21.50
2022-09-06T22:20:34.383Z,21.60
2022-09-06T22:23:05.450Z,21.60
2022-09-06T22:25:32.511Z,21.60
2022-09-06T22:28:00.204Z,21.50
2022-09-06T22:30:27.589Z,21.60
2022-09-06T22:32:54.675Z,21.60
2022-09-06T22:35:22.016Z,21.60
2022-09-06T22:37:48.996Z,21.50
2022-09-06T22:40:16.279Z,21.50
2022-09-06T22:42:43.465Z,21.40
2022-09-06T22:45:10.520Z,21.40
2022-09-06T22:47:37.466Z,21.40
2022-09-06T22:50:04.721Z,21.40
2022-09-06T22:52:31.671Z,21.40
2022-09-06T22:54:58.855Z,21.40
2022-09-06T22:57:26.921Z,21.40
2022-09-06T22:59:54.062Z,21.30
2022-09-06T23:02:20.996Z,21.30
2022-09-06T23:04:48.039Z,21.30
2022-09-06T23:07:15.006Z,21.20
2022-09-06T23:09:43.858Z,21.20
2022-09-06T23:12:10.792Z,21.20
2022-09-06T23:14:37.889Z,21.20
2022-09-06T23:17:04.988Z,21.20
2022-09-06T23:19:32.390Z,21.10
2022-09-06T23:22:00.138Z,21.00
2022-09-06T23:24:27.340Z,20.80
2022-09-06T23:26:54.634Z,20.80
2022-09-06T23:29:21.580Z,20.80
2022-09-06T23:31:50.104Z,20.70
2022-09-06T23:34:17.155Z,20.60
2022-09-06T23:36:44.080Z,20.50
2022-09-06T23:39:11.644Z,20.40
2022-09-06T23:41:38.665Z,20.30
2022-09-06T23:44:05.797Z,20.40
2022-09-06T23:46:33.735Z,19.90
2022-09-06T23:49:00.803Z,19.40
2022-09-06T23:51:27.785Z,19.20
2022-09-06T23:53:54.789Z,19.00
2022-09-06T23:56:22.486Z,18.70
2022-09-06T23:58:49.505Z,18.60
